createdAt,value
2023-04-17T00:02:01.693Z,42.52
2023-04-17T00:04:28.889Z,42.56
2023-04-17T00:06:56.050Z,42.39
2023-04-17T00:09:23.096Z,42.30
2023-04-17T00:11:50.048Z,42.11
2023-04-17T00:14:17.008Z,42.46
2023-04-17T00:16:43.913Z,42.66
2023-04-17T00:19:11.057Z,42.83
2023-04-17T00:21:38.437Z,42.51
2023-04-17T00:24:05.498Z,42.64
2023-04-17T00:26:34.601Z,42.98
2023-04-17T00:29:01.829Z,42.84
2023-04-17T00:31:30.918Z,43.15
2023-04-17T00:33:59.007Z,43.08
2023-04-17T00:36:27.365Z,43.31
2023-04-17T00:38:54.369Z,43.87
2023-04-17T00:41:21.422Z,43.86
2023-04-17T00:43:48.467Z,43.70
2023-04-17T00:46:15.671Z,43.63
2023-04-17T00:48:44.137Z,43.99
2023-04-17T00:51:11.274Z,43.74
2023-04-17T00:53:38.269Z,44.04
2023-04-17T00:56:06.058Z,44.15
2023-04-17T00:58:33.356Z,43.77
2023-04-17T01:01:00.561Z,44.30
2023-04-17T01:03:29.724Z,44.23
2023-04-17T01:05:57.534Z,44.67
2023-04-17T01:08:24.484Z,44.08
2023-04-17T01:10:52.419Z,44.42
2023-04-17T01:13:19.530Z,44.76
2023-04-17T01:15:47.160Z,44.83
2023-04-17T01:18:14.329Z,45.03
2023-04-17T01:20:41.373Z,45.16
2023-04-17T01:23:08.319Z,45.11
2023-04-17T01:25:36.154Z,44.96
2023-04-17T01:28:03.284Z,45.16
2023-04-17T01:30:30.409Z,44.95
2023-04-17T01:33:03.351Z,44.95
2023-04-17T01:35:30.399Z,45.28
2023-04-17T01:37:58.042Z,45.45
2023-04-17T01:40:25.116Z,45.72
2023-04-17T01:42:52.078Z,45.52
2023-04-17T01:45:19.139Z,45.62
2023-04-17T01:47:46.169Z,45.63
2023-04-17T01:50:13.638Z,45.56
2023-04-17T01:52:41.234Z,45.92
2023-04-17T01:55:09.420Z,47.34
2023-04-17T01:57:36.817Z,46.44
2023-04-17T02:00:09.339Z,46.51
2023-04-17T02:02:45.676Z,46.85
2023-04-17T02:05:12.926Z,46.63
2023-04-17T02:07:39.970Z,46.71
2023-04-17T02:10:07.636Z,46.65
2023-04-17T02:12:37.429Z,46.89
2023-04-17T02:15:05.884Z,47.02
2023-04-17T02:17:34.563Z,46.51
2023-04-17T02:20:02.960Z,47.31
2023-04-17T02:22:31.760Z,47.12
2023-04-17T02:24:58.861Z,46.96
2023-04-17T02:27:27.135Z,47.47
2023-04-17T02:29:54.237Z,47.27
2023-04-17T02:32:21.394Z,47.03
2023-04-17T02:34:48.422Z,47.62
2023-04-17T02:37:17.291Z,47.33
2023-04-17T02:39:44.400Z,47.55
2023-04-17T02:42:13.085Z,47.87
2023-04-17T02:44:41.472Z,48.00
2023-04-17T02:47:08.701Z,47.93
2023-04-17T02:49:35.721Z,47.82
2023-04-17T02:52:02.634Z,48.05
2023-04-17T02:54:29.613Z,47.77
2023-04-17T02:56:59.442Z,48.03
2023-04-17T02:59:27.058Z,48.30
2023-04-17T03:01:54.461Z,48.05
2023-04-17T03:04:22.219Z,47.79
2023-04-17T03:06:49.421Z,48.17
2023-04-17T03:09:18.282Z,48.53
2023-04-17T03:11:47.129Z,48.18
2023-04-17T03:14:14.066Z,48.76
2023-04-17T03:16:41.084Z,48.99
2023-04-17T03:19:08.606Z,48.45
2023-04-17T03:21:36.393Z,48.68
2023-04-17T03:24:03.853Z,48.59
2023-04-17T03:26:31.432Z,48.51
2023-04-17T03:29:03.074Z,48.66
2023-04-17T03:31:30.148Z,48.44
2023-04-17T03:33:57.341Z,48.49
2023-04-17T03:36:24.655Z,48.05
2023-04-17T03:38:52.486Z,47.63
2023-04-17T03:41:19.502Z,48.21
2023-04-17T03:43:47.931Z,48.63
2023-04-17T03:46:15.003Z,48.78
2023-04-17T03:48:42.835Z,48.89
2023-04-17T03:51:09.761Z,48.75
2023-04-17T03:53:37.807Z,48.51
2023-04-17T03:56:08.655Z,48.17
2023-04-17T03:58:39.006Z,48.14
2023-04-17T04:01:10.733Z,47.64
2023-04-17T04:03:42.520Z,47.52
2023-04-17T04:06:10.101Z,47.54
2023-04-17T04:08:37.213Z,47.69
2023-04-17T04:11:04.341Z,47.62
2023-04-17T04:13:35.803Z,47.76
2023-04-17T04:16:03.967Z,47.61
2023-04-17T04:18:34.806Z,47.67
2023-04-17T04:21:02.639Z,47.17
2023-04-17T04:23:33.904Z,47.02
2023-04-17T04:26:01.975Z,46.37
2023-04-17T04:28:47.567Z,45.82
2023-04-17T04:31:20.758Z,45.21
2023-04-17T04:33:47.907Z,44.67
2023-04-17T04:36:20.278Z,44.08
2023-04-17T04:38:51.807Z,43.92
2023-04-17T04:41:26.853Z,43.40
2023-04-17T04:43:54.652Z,43.41
2023-04-17T04:46:21.732Z,43.92
2023-04-17T04:48:49.589Z,44.55
2023-04-17T04:51:18.986Z,44.26
2023-04-17T04:53:47.714Z,43.12
2023-04-17T04:56:16.029Z,43.33
2023-04-17T04:58:45.448Z,43.91
2023-04-17T05:01:13.168Z,43.70
2023-04-17T05:03:47.584Z,44.35
2023-04-17T05:06:21.380Z,42.71
2023-04-17T05:08:53.727Z,42.14
2023-04-17T05:11:20.766Z,41.97
2023-04-17T05:13:48.495Z,41.97
2023-04-17T05:16:20.725Z,40.38
2023-04-17T05:18:48.342Z,40.25
2023-04-17T05:21:20.053Z,39.90
2023-04-17T05:23:49.866Z,39.47
2023-04-17T05:26:17.131Z,39.62
2023-04-17T05:28:45.445Z,39.07
2023-04-17T05:31:18.240Z,38.23
2023-04-17T05:33:46.635Z,38.21
2023-04-17T05:36:14.115Z,37.68
2023-04-17T05:38:42.994Z,37.52
2023-04-17T05:41:11.129Z,37.66
2023-04-17T05:43:38.440Z,37.33
2023-04-17T05:46:06.749Z,36.49
2023-04-17T05:48:34.221Z,36.90
2023-04-17T05:51:03.788Z,37.07
2023-04-17T05:53:32.363Z,37.56
2023-04-17T05:56:00.198Z,37.76
2023-04-17T05:58:27.461Z,38.20
2023-04-17T06:00:56.967Z,37.56
2023-04-17T06:03:26.811Z,37.68
2023-04-17T06:06:04.332Z,37.23
2023-04-17T06:08:31.765Z,37.79
2023-04-17T06:10:58.801Z,37.76
2023-04-17T06:13:26.232Z,37.33
2023-04-17T06:15:54.253Z,36.99
2023-04-17T06:18:21.329Z,37.31
2023-04-17T06:20:48.320Z,37.76
2023-04-17T06:23:15.504Z,37.05
2023-04-17T06:25:42.740Z,36.81
2023-04-17T06:28:10.455Z,38.00
2023-04-17T06:30:38.006Z,38.02
2023-04-17T06:33:06.428Z,37.84
2023-04-17T06:35:35.168Z,38.36
2023-04-17T06:38:12.207Z,38.17
2023-04-17T06:40:39.353Z,37.64
2023-04-17T06:43:07.260Z,36.02
2023-04-17T06:45:38.414Z,35.30
2023-04-17T06:48:06.775Z,34.84
2023-04-17T06:50:33.853Z,34.48
2023-04-17T06:53:01.011Z,33.56
2023-04-17T06:55:28.055Z,33.45
2023-04-17T06:57:54.997Z,33.21
2023-04-17T07:00:22.323Z,32.84
2023-04-17T07:02:49.432Z,32.29
2023-04-17T07:05:16.760Z,30.94
2023-04-17T07:07:43.730Z,29.38
2023-04-17T07:10:11.127Z,28.71
2023-04-17T07:12:38.334Z,29.10
2023-04-17T07:15:05.932Z,28.72
2023-04-17T07:17:33.034Z,27.90
2023-04-17T07:20:00.176Z,28.07
2023-04-17T07:22:27.507Z,28.41
2023-04-17T07:24:54.665Z,28.06
2023-04-17T07:27:22.142Z,27.81
2023-04-17T07:29:54.536Z,27.26
2023-04-17T07:32:22.423Z,27.58
2023-04-17T07:34:49.472Z,27.65
2023-04-17T07:37:16.786Z,27.07
2023-04-17T07:39:43.824Z,27.96
2023-04-17T07:42:11.481Z,27.94
2023-04-17T07:44:39.100Z,27.79
2023-04-17T07:47:06.617Z,27.29
2023-04-17T07:49:34.379Z,27.14
2023-04-17T07:52:01.465Z,26.81
2023-04-17T07:54:28.433Z,26.92
2023-04-17T07:56:58.389Z,26.68
2023-04-17T07:59:25.474Z,26.32
2023-04-17T08:01:52.747Z,26.25
2023-04-17T08:04:20.116Z,26.79
2023-04-17T08:06:47.365Z,26.36
2023-04-17T08:09:14.494Z,27.00
2023-04-17T08:11:56.328Z,26.66
2023-04-17T08:14:24.431Z,26.86
2023-04-17T08:16:51.550Z,26.33
2023-04-17T08:19:18.756Z,26.99
2023-04-17T08:21:48.662Z,26.78
2023-04-17T08:24:18.701Z,26.01
2023-04-17T08:26:47.815Z,25.93
2023-04-17T08:29:15.327Z,25.51
2023-04-17T08:31:42.846Z,25.37
2023-04-17T08:34:15.061Z,25.37
2023-04-17T08:36:43.324Z,25.21
2023-04-17T08:39:12.342Z,25.12
2023-04-17T08:41:58.523Z,25.34
2023-04-17T08:44:25.820Z,25.14
2023-04-17T08:46:52.984Z,25.73
2023-04-17T08:49:19.956Z,25.33
2023-04-17T08:51:47.291Z,25.27
2023-04-17T08:54:14.354Z,25.29
2023-04-17T08:56:41.364Z,24.98
2023-04-17T08:59:08.359Z,24.08
2023-04-17T09:01:35.880Z,24.23
2023-04-17T09:04:03.243Z,24.39
2023-04-17T09:06:30.844Z,24.86
2023-04-17T09:08:59.214Z,24.81
2023-04-17T09:11:26.584Z,24.48
2023-04-17T09:13:54.321Z,23.84
2023-04-17T09:16:21.502Z,23.42
2023-04-17T09:18:48.541Z,23.00
2023-04-17T09:21:17.276Z,23.18
2023-04-17T09:23:52.206Z,23.90
2023-04-17T09:26:23.938Z,24.39
2023-04-17T09:29:14.130Z,23.85
2023-04-17T09:31:42.951Z,24.79
2023-04-17T09:34:13.463Z,24.87
2023-04-17T09:36:42.168Z,25.08
2023-04-17T09:39:25.244Z,25.18
2023-04-17T09:42:10.918Z,24.62
2023-04-17T09:44:38.049Z,23.99
2023-04-17T09:47:05.272Z,24.05
2023-04-17T09:49:52.668Z,23.68
2023-04-17T09:52:21.508Z,23.82
2023-04-17T09:54:49.360Z,23.77
2023-04-17T09:57:16.636Z,23.53
2023-04-17T09:59:50.140Z,23.79
2023-04-17T10:02:18.250Z,23.81
2023-04-17T10:04:46.069Z,23.89
2023-04-17T10:07:13.326Z,23.57
2023-04-17T10:09:45.565Z,23.48
2023-04-17T10:12:17.801Z,23.25
2023-04-17T10:14:48.872Z,23.48
2023-04-17T10:17:26.288Z,23.04
2023-04-17T10:19:53.368Z,23.60
2023-04-17T10:22:20.367Z,23.91
2023-04-17T10:25:13.827Z,23.81
2023-04-17T10:27:41.425Z,23.56
2023-04-17T10:30:15.519Z,23.62
2023-04-17T10:32:46.486Z,23.36
2023-04-17T10:35:16.618Z,23.69
2023-04-17T10:37:52.455Z,23.58
2023-04-17T10:40:26.096Z,23.73
2023-04-17T10:43:22.392Z,24.21
2023-04-17T10:46:12.210Z,24.16
2023-04-17T10:48:50.748Z,24.14
2023-04-17T10:51:24.679Z,24.47
2023-04-17T10:53:58.253Z,24.22
2023-04-17T10:56:46.407Z,24.40
2023-04-17T10:59:14.886Z,24.66
2023-04-17T11:01:48.255Z,24.24
2023-04-17T11:04:28.450Z,23.87
2023-04-17T11:06:55.906Z,24.12
2023-04-17T11:09:24.089Z,24.31
2023-04-17T11:11:51.073Z,24.46
2023-04-17T11:14:20.597Z,24.42
2023-04-17T11:16:49.077Z,23.55
2023-04-17T11:19:25.988Z,23.55
2023-04-17T11:21:54.282Z,23.70
2023-04-17T11:24:24.983Z,23.26
2023-04-17T11:26:51.967Z,23.43
2023-04-17T11:29:20.519Z,23.18
2023-04-17T11:31:48.774Z,23.19
2023-04-17T11:34:16.394Z,23.31
2023-04-17T11:36:59.394Z,23.03
2023-04-17T11:39:28.953Z,24.10
2023-04-17T11:41:57.301Z,24.59
2023-04-17T11:44:24.592Z,24.56
2023-04-17T11:46:55.328Z,23.64
2023-04-17T11:49:29.001Z,23.52
2023-04-17T11:51:58.649Z,22.94
2023-04-17T11:54:32.146Z,23.16
2023-04-17T11:56:59.193Z,23.42
2023-04-17T11:59:52.592Z,22.78
2023-04-17T12:02:19.770Z,23.33
2023-04-17T12:04:47.273Z,23.89
2023-04-17T12:07:21.677Z,24.25
2023-04-17T12:09:55.742Z,23.96
2023-04-17T12:12:23.075Z,23.73
2023-04-17T12:14:50.399Z,24.52
2023-04-17T12:17:17.478Z,24.36
2023-04-17T12:19:45.380Z,24.97
2023-04-17T12:22:12.570Z,24.90
2023-04-17T12:24:39.653Z,24.37
2023-04-17T12:27:06.701Z,24.61
2023-04-17T12:29:43.707Z,24.08
2023-04-17T12:32:12.391Z,25.49
2023-04-17T12:34:39.669Z,26.03
2023-04-17T12:37:06.709Z,25.28
2023-04-17T12:39:33.684Z,24.80
2023-04-17T12:42:01.293Z,25.04
2023-04-17T12:44:28.350Z,25.67
2023-04-17T12:46:55.351Z,26.44
2023-04-17T12:49:23.668Z,26.83
2023-04-17T12:51:51.731Z,26.30
2023-04-17T12:54:19.288Z,26.36
2023-04-17T12:56:46.416Z,26.63
2023-04-17T12:59:13.418Z,26.94
2023-04-17T13:01:40.683Z,26.44
2023-04-17T13:04:08.209Z,26.57
2023-04-17T13:06:35.582Z,26.09
2023-04-17T13:09:02.703Z,26.84
2023-04-17T13:11:29.828Z,26.64
2023-04-17T13:13:56.955Z,26.86
2023-04-17T13:16:24.071Z,26.57
2023-04-17T13:18:51.195Z,26.49
2023-04-17T13:21:18.211Z,26.99
2023-04-17T13:23:45.189Z,27.41
2023-04-17T13:26:12.213Z,27.77
2023-04-17T13:28:39.920Z,28.02
2023-04-17T13:31:07.196Z,27.49
2023-04-17T13:33:34.735Z,27.80
2023-04-17T13:36:01.917Z,27.54
2023-04-17T13:38:30.414Z,27.10
2023-04-17T13:40:57.490Z,27.10
2023-04-17T13:43:24.666Z,27.79
2023-04-17T13:45:54.189Z,27.33
2023-04-17T13:48:22.793Z,27.27
2023-04-17T13:50:50.128Z,27.08
2023-04-17T13:53:17.078Z,27.95
2023-04-17T13:55:44.056Z,27.66
2023-04-17T13:58:11.687Z,28.30
2023-04-17T14:00:38.683Z,28.48
2023-04-17T14:03:06.092Z,28.35
2023-04-17T14:05:33.218Z,28.62
2023-04-17T14:08:01.659Z,29.28
2023-04-17T14:10:28.775Z,29.55
2023-04-17T14:12:55.698Z,29.25
2023-04-17T14:15:22.583Z,29.86
2023-04-17T14:17:49.768Z,29.95
2023-04-17T14:20:18.032Z,29.69
2023-04-17T14:22:45.630Z,30.04
2023-04-17T14:25:16.122Z,29.83
2023-04-17T14:27:43.252Z,29.59
2023-04-17T14:30:10.919Z,29.47
2023-04-17T14:32:40.680Z,29.46
2023-04-17T14:35:08.272Z,29.54
2023-04-17T14:37:35.318Z,29.60
2023-04-17T14:40:02.465Z,29.39
2023-04-17T14:42:32.684Z,30.12
2023-04-17T14:45:03.092Z,30.81
2023-04-17T14:47:31.494Z,31.25
2023-04-17T14:49:58.463Z,31.64
2023-04-17T14:52:25.520Z,31.66
2023-04-17T14:54:52.532Z,31.90
2023-04-17T14:57:19.544Z,32.17
2023-04-17T14:59:47.188Z,32.42
2023-04-17T15:02:14.333Z,33.25
2023-04-17T15:04:42.563Z,32.81
2023-04-17T15:07:09.659Z,32.91
2023-04-17T15:09:36.654Z,33.27
2023-04-17T15:12:03.828Z,33.71
2023-04-17T15:14:31.035Z,33.89
2023-04-17T15:16:59.157Z,33.95
2023-04-17T15:19:26.323Z,34.37
2023-04-17T15:21:53.395Z,34.73
2023-04-17T15:24:20.386Z,35.09
2023-04-17T15:26:47.348Z,35.50
2023-04-17T15:29:14.480Z,35.48
2023-04-17T15:31:41.803Z,35.95
2023-04-17T15:34:08.892Z,35.45
2023-04-17T15:36:35.891Z,35.11
2023-04-17T15:39:02.907Z,35.62
2023-04-17T15:41:29.878Z,36.26
2023-04-17T15:43:56.861Z,36.58
2023-04-17T15:46:23.982Z,36.68
2023-04-17T15:49:05.009Z,36.00
2023-04-17T15:51:35.235Z,36.35
2023-04-17T15:54:02.252Z,36.66
2023-04-17T15:56:29.220Z,36.46
2023-04-17T15:58:56.195Z,36.60
2023-04-17T16:01:23.405Z,36.68
2023-04-17T16:03:50.687Z,36.78
2023-04-17T16:06:17.786Z,36.69
2023-04-17T16:08:44.898Z,37.14
2023-04-17T16:11:12.633Z,37.56
2023-04-17T16:13:39.651Z,37.83
2023-04-17T16:16:06.939Z,38.20
2023-04-17T16:18:34.093Z,37.84
2023-04-17T16:21:01.168Z,38.23
2023-04-17T16:23:28.292Z,37.99
2023-04-17T16:25:55.480Z,38.43
2023-04-17T16:28:23.018Z,38.29
2023-04-17T16:30:50.004Z,37.83
2023-04-17T16:33:17.094Z,37.22
2023-04-17T16:35:44.063Z,37.22
2023-04-17T16:38:11.119Z,37.48
2023-04-17T16:40:38.101Z,38.43
2023-04-17T16:43:05.169Z,38.92
2023-04-17T16:45:32.400Z,39.45
2023-04-17T16:47:59.686Z,40.53
2023-04-17T16:50:26.770Z,41.07
2023-04-17T16:52:53.779Z,41.06
2023-04-17T16:55:20.967Z,41.10
2023-04-17T16:57:48.088Z,41.00
2023-04-17T17:00:15.407Z,41.12
2023-04-17T17:02:42.603Z,41.16
2023-04-17T17:05:09.875Z,41.07
2023-04-17T17:07:36.802Z,41.20
2023-04-17T17:10:04.038Z,40.57
2023-04-17T17:12:31.225Z,41.14
2023-04-17T17:14:59.476Z,41.31
2023-04-17T17:17:26.431Z,41.82
2023-04-17T17:19:53.467Z,41.64
2023-04-17T17:22:20.616Z,41.67
2023-04-17T17:24:47.568Z,41.35
2023-04-17T17:27:15.414Z,41.43
2023-04-17T17:29:43.594Z,41.24
2023-04-17T17:32:11.686Z,41.56
2023-04-17T17:34:39.233Z,41.28
2023-04-17T17:37:09.080Z,41.38
2023-04-17T17:39:40.328Z,41.57
2023-04-17T17:42:11.570Z,41.59
2023-04-17T17:44:42.565Z,42.22
2023-04-17T17:47:13.742Z,42.36
2023-04-17T17:49:44.876Z,41.86
2023-04-17T17:52:15.929Z,42.45
2023-04-17T17:54:47.208Z,42.64
2023-04-17T17:57:18.032Z,42.78
2023-04-17T17:59:49.063Z,43.01
2023-04-17T18:02:20.135Z,43.71
2023-04-17T18:04:50.775Z,43.91
2023-04-17T18:07:21.697Z,43.73
2023-04-17T18:09:50.881Z,43.82
2023-04-17T18:12:17.958Z,43.79
2023-04-17T18:14:48.006Z,43.57
2023-04-17T18:17:18.587Z,44.08
2023-04-17T18:19:49.207Z,44.20
2023-04-17T18:22:17.584Z,44.38
2023-04-17T18:24:44.590Z,45.25
2023-04-17T18:27:11.607Z,46.08
2023-04-17T18:29:38.575Z,46.53
2023-04-17T18:32:05.664Z,46.51
2023-04-17T18:34:33.018Z,46.01
2023-04-17T18:37:00.591Z,46.18
2023-04-17T18:39:27.772Z,47.00
2023-04-17T18:41:54.821Z,47.39
2023-04-17T18:44:22.393Z,48.19
2023-04-17T18:46:50.080Z,48.21
2023-04-17T18:49:17.210Z,48.24
2023-04-17T18:51:48.410Z,49.10
2023-04-17T18:54:17.463Z,49.37
2023-04-17T18:56:45.867Z,49.92
2023-04-17T18:59:14.302Z,50.65
2023-04-17T19:01:42.934Z,50.18
2023-04-17T19:04:09.935Z,49.96
2023-04-17T19:06:37.131Z,49.52
2023-04-17T19:09:04.280Z,49.54
2023-04-17T19:11:32.005Z,49.17
2023-04-17T19:13:59.068Z,49.64
2023-04-17T19:16:26.095Z,48.56
2023-04-17T19:18:53.235Z,48.43
2023-04-17T19:21:20.287Z,49.47
2023-04-17T19:23:48.004Z,49.73
2023-04-17T19:26:17.755Z,50.25
2023-04-17T19:28:44.746Z,50.41
2023-04-17T19:31:11.919Z,50.38
2023-04-17T19:33:39.094Z,50.48
2023-04-17T19:36:06.206Z,50.58
2023-04-17T19:38:33.215Z,50.29
2023-04-17T19:41:19.155Z,50.22
2023-04-17T19:43:49.909Z,51.03
2023-04-17T19:46:18.278Z,51.37
2023-04-17T19:48:45.582Z,51.99
2023-04-17T19:51:12.971Z,51.55
2023-04-17T19:53:42.096Z,51.50
2023-04-17T19:56:09.607Z,51.14
2023-04-17T19:58:37.175Z,50.90
2023-04-17T20:01:04.341Z,50.46
2023-04-17T20:03:32.449Z,50.89
2023-04-17T20:06:00.413Z,51.70
2023-04-17T20:08:27.729Z,51.22
2023-04-17T20:10:54.838Z,50.30
2023-04-17T20:13:22.041Z,50.30
2023-04-17T20:15:49.085Z,50.06
2023-04-17T20:18:16.294Z,50.26
2023-04-17T20:20:43.253Z,49.75
2023-04-17T20:23:10.164Z,48.97
2023-04-17T20:25:37.238Z,49.60
2023-04-17T20:28:04.390Z,49.74
2023-04-17T20:30:31.496Z,49.79
2023-04-17T20:32:58.599Z,49.88
2023-04-17T20:35:25.811Z,50.12
2023-04-17T20:37:53.049Z,50.35
2023-04-17T20:40:20.342Z,50.54
2023-04-17T20:42:47.669Z,50.67
2023-04-17T20:45:14.642Z,50.69
2023-04-17T20:47:55.757Z,51.56
2023-04-17T20:50:24.375Z,52.37
2023-04-17T20:52:51.568Z,52.22
2023-04-17T20:55:20.002Z,52.61
2023-04-17T20:57:48.079Z,53.68
2023-04-17T21:00:15.906Z,54.31
2023-04-17T21:02:43.881Z,54.29
2023-04-17T21:05:11.083Z,52.31
2023-04-17T21:07:38.102Z,52.10
2023-04-17T21:10:05.573Z,51.29
2023-04-17T21:12:35.320Z,52.28
2023-04-17T21:15:02.652Z,52.90
2023-04-17T21:17:32.687Z,53.37
2023-04-17T21:19:59.758Z,54.09
2023-04-17T21:22:26.799Z,55.25
2023-04-17T21:24:53.688Z,55.46
2023-04-17T21:27:20.735Z,55.22
2023-04-17T21:29:47.702Z,55.85
2023-04-17T21:32:14.767Z,55.53
2023-04-17T21:34:41.790Z,54.53
2023-04-17T21:37:08.743Z,54.08
2023-04-17T21:39:36.041Z,53.75
2023-04-17T21:42:03.104Z,54.10
2023-04-17T21:44:30.092Z,54.19
2023-04-17T21:46:57.127Z,53.97
2023-04-17T21:49:24.329Z,54.14
2023-04-17T21:51:51.401Z,55.24
2023-04-17T21:54:18.494Z,55.86
2023-04-17T21:56:45.572Z,56.89
2023-04-17T21:59:12.532Z,57.29
2023-04-17T22:01:39.692Z,57.22
2023-04-17T22:04:06.757Z,57.55
2023-04-17T22:06:37.008Z,58.27
2023-04-17T22:09:07.279Z,58.51
2023-04-17T22:11:34.500Z,59.00
2023-04-17T22:14:01.543Z,59.50
2023-04-17T22:16:28.632Z,59.17
2023-04-17T22:18:55.730Z,58.84
2023-04-17T22:21:22.695Z,59.04
2023-04-17T22:23:49.651Z,58.75
2023-04-17T22:26:16.682Z,59.14
2023-04-17T22:28:43.811Z,59.24
2023-04-17T22:31:11.146Z,58.98
2023-04-17T22:33:38.156Z,58.81
2023-04-17T22:36:05.262Z,58.52
2023-04-17T22:38:32.177Z,58.64
2023-04-17T22:40:59.622Z,58.22
2023-04-17T22:43:26.588Z,57.89
2023-04-17T22:45:53.668Z,56.91
2023-04-17T22:48:23.871Z,56.16
2023-04-17T22:50:51.752Z,55.43
2023-04-17T22:53:18.904Z,55.53
2023-04-17T22:55:46.213Z,56.71
2023-04-17T22:58:13.236Z,56.94
2023-04-17T23:00:40.155Z,57.43
2023-04-17T23:03:07.642Z,58.18
2023-04-17T23:05:34.802Z,58.58
2023-04-17T23:08:01.939Z,58.43
2023-04-17T23:10:28.917Z,58.64
2023-04-17T23:12:56.015Z,59.53
2023-04-17T23:15:23.143Z,58.81
2023-04-17T23:17:50.348Z,58.40
2023-04-17T23:20:17.583Z,57.87
2023-04-17T23:22:44.616Z,58.23
2023-04-17T23:25:11.676Z,58.17
2023-04-17T23:27:38.822Z,58.89
2023-04-17T23:30:06.536Z,59.08
2023-04-17T23:32:33.562Z,59.13
2023-04-17T23:35:00.587Z,59.28
2023-04-17T23:37:27.598Z,59.56
2023-04-17T23:39:54.656Z,59.14
2023-04-17T23:42:21.819Z,58.98
2023-04-17T23:44:48.719Z,59.55
2023-04-17T23:47:16.129Z,60.44
2023-04-17T23:49:43.102Z,61.03
2023-04-17T23:52:10.300Z,61.31
2023-04-17T23:54:37.245Z,61.68
2023-04-17T23:57:04.566Z,62.04
2023-04-17T23:59:31.690Z,62.62
